Time;durP1;ratioP1;P1;durP2;ratioP2;P2;SDS_P1;SDS_P2;PMS_P1;PMS_P2;Temp;Humidity;BMP_temperature;BMP_pressure;BME280_temperature;BME280_humidity;BME280_pressure;Samples;Min_cycle;Max_cycle;Signal;HPM_P1;HPM_P2
2022/05/06 00:00:20;;;;;;;8.98;4.13;;;;;;;;;;5048743;28;20072;-64
2022/05/06 00:02:52;;;;;;;9.93;4.38;;;;;;;;;;5048888;28;20064;-64
2022/05/06 00:05:22;;;;;;;10.27;4.20;;;;;;;;;;5001299;28;20057;-64
2022/05/06 00:07:53;;;;;;;9.55;3.97;;;;;;;;;;5048668;28;20052;-64
2022/05/06 00:10:24;;;;;;;8.35;3.85;;;;;;;;;;5048759;28;20501;-64
2022/05/06 00:12:55;;;;;;;7.75;3.85;;;;;;;;;;4999569;28;20049;-64
2022/05/06 00:15:26;;;;;;;8.18;3.20;;;;;;;;;;5032735;28;20065;-64
2022/05/06 00:17:57;;;;;;;11.82;5.18;;;;;;;;;;5008761;28;20053;-65
2022/05/06 00:20:28;;;;;;;8.25;3.72;;;;;;;;;;4992626;28;20194;-65
2022/05/06 00:23:00;;;;;;;11.13;3.95;;;;;;;;;;5009008;28;20058;-65
2022/05/06 00:25:31;;;;;;;9.95;3.85;;;;;;;;;;5009013;28;20151;-65
2022/05/06 00:28:01;;;;;;;7.70;3.58;;;;;;;;;;5008821;28;20050;-65
2022/05/06 00:30:33;;;;;;;8.75;3.53;;;;;;;;;;4995029;28;20054;-65
2022/05/06 00:33:05;;;;;;;11.65;3.42;;;;;;;;;;4980912;28;20413;-65
2022/05/06 00:35:39;;;;;;;10.38;3.40;;;;;;;;;;5012508;28;20042;-65
2022/05/06 00:38:10;;;;;;;12.60;3.58;;;;;;;;;;4992533;28;20046;-65
2022/05/06 00:40:41;;;;;;;9.73;3.50;;;;;;;;;;4992618;28;20054;-65
2022/05/06 00:43:12;;;;;;;9.25;4.28;;;;;;;;;;4992669;28;20051;-65
2022/05/06 00:45:52;;;;;;;7.25;3.50;;;;;;;;;;4976781;28;20054;-65
2022/05/06 00:48:31;;;;;;;7.80;3.17;;;;;;;;;;4972861;28;20054;-65
2022/05/06 00:51:06;;;;;;;8.40;2.70;;;;;;;;;;4934384;29;20632;-65
2022/05/06 00:53:37;;;;;;;7.43;3.08;;;;;;;;;;4918590;29;20096;-65
2022/05/06 00:56:11;;;;;;;8.00;3.60;;;;;;;;;;4934668;29;20546;-65
2022/05/06 00:58:44;;;;;;;7.30;3.25;;;;;;;;;;4904486;29;20227;-65
2022/05/06 01:01:16;;;;;;;6.22;2.85;;;;;;;;;;4934476;29;20059;-65
2022/05/06 01:03:48;;;;;;;14.20;3.83;;;;;;;;;;4903127;29;20056;-65
2022/05/06 01:06:18;;;;;;;7.65;3.13;;;;;;;;;;4911168;29;20052;-66
2022/05/06 01:08:53;;;;;;;10.98;3.60;;;;;;;;;;4915440;29;20500;-65
2022/05/06 01:11:26;;;;;;;8.25;2.92;;;;;;;;;;4915246;29;20401;-65
2022/05/06 01:13:57;;;;;;;8.85;3.35;;;;;;;;;;4915389;29;20064;-65
2022/05/06 01:16:34;;;;;;;7.40;3.05;;;;;;;;;;4911267;29;20067;-65
2022/05/06 01:19:10;;;;;;;8.77;3.35;;;;;;;;;;4931076;29;20051;-65
2022/05/06 01:21:49;;;;;;;8.25;2.80;;;;;;;;;;4914867;29;20412;-65
2022/05/06 01:24:20;;;;;;;6.65;3.03;;;;;;;;;;4877154;29;20398;-65
2022/05/06 01:27:01;;;;;;;10.75;3.28;;;;;;;;;;4877413;29;20060;-65
2022/05/06 01:29:33;;;;;;;8.32;2.78;;;;;;;;;;4880643;29;20409;-65
2022/05/06 01:32:05;;;;;;;8.57;3.50;;;;;;;;;;4914744;29;20048;-65
2022/05/06 01:34:40;;;;;;;6.88;3.38;;;;;;;;;;4883776;29;20064;-65
2022/05/06 01:37:22;;;;;;;8.43;3.85;;;;;;;;;;4913600;29;20048;-65
2022/05/06 01:39:59;;;;;;;7.90;3.25;;;;;;;;;;4949963;29;20055;-64
2022/05/06 01:42:33;;;;;;;;;;;;;;;;;;4933456;29;20067;-65
2022/05/06 01:45:12;;;;;;;6.30;2.58;;;;;;;;;;4914587;29;20303;-65
2022/05/06 01:47:46;;;;;;;8.73;4.03;;;;;;;;;;4914467;29;20067;-64
2022/05/06 01:50:24;;;;;;;8.70;3.67;;;;;;;;;;4923692;29;20055;-64
2022/05/06 01:52:58;;;;;;;6.43;3.40;;;;;;;;;;4942095;29;20056;-64
2022/05/06 01:55:30;;;;;;;8.35;3.13;;;;;;;;;;4914300;29;20063;-65
2022/05/06 01:58:04;;;;;;;9.90;3.63;;;;;;;;;;4914564;29;20055;-66
2022/05/06 02:00:40;;;;;;;5.57;2.78;;;;;;;;;;4933002;29;20407;-64
2022/05/06 02:06:11;;;;;;;6.55;3.10;;;;;;;;;;4933033;29;20051;-64
2022/05/06 02:08:45;;;;;;;8.07;3.25;;;;;;;;;;4932871;29;20060;-65
2022/05/06 02:11:23;;;;;;;9.43;2.90;;;;;;;;;;4895007;29;20059;-65
2022/05/06 02:13:55;;;;;;;7.65;3.38;;;;;;;;;;4876213;29;20119;-65
2022/05/06 02:16:42;;;;;;;8.38;3.10;;;;;;;;;;4876632;29;20438;-64
2022/05/06 02:19:31;;;;;;;9.68;4.35;;;;;;;;;;4842642;29;20061;-65
2022/05/06 02:22:42;;;;;;;7.90;3.05;;;;;;;;;;4887474;29;20086;-65
2022/05/06 02:25:39;;;;;;;7.45;3.22;;;;;;;;;;4887588;29;20052;-64
2022/05/06 02:28:39;;;;;;;7.50;3.83;;;;;;;;;;4914479;29;20505;-65
2022/05/06 02:34:00;;;;;;;9.93;3.42;;;;;;;;;;4899989;29;20063;-64
2022/05/06 02:36:35;;;;;;;8.55;3.45;;;;;;;;;;4908217;29;20052;-65
2022/05/06 02:39:05;;;;;;;7.95;3.50;;;;;;;;;;4894659;29;20049;-64
2022/05/06 02:41:36;;;;;;;9.82;3.97;;;;;;;;;;4875923;29;20064;-65
2022/05/06 02:44:07;;;;;;;12.18;4.47;;;;;;;;;;4875659;29;20514;-64
2022/05/06 02:46:43;;;;;;;6.95;3.58;;;;;;;;;;4894418;29;20053;-65
2022/05/06 02:49:14;;;;;;;8.52;4.28;;;;;;;;;;4894429;29;20076;-65
2022/05/06 02:51:44;;;;;;;8.23;3.25;;;;;;;;;;4904956;29;20448;-65
2022/05/06 02:54:21;;;;;;;6.03;3.38;;;;;;;;;;4912675;29;20056;-65
2022/05/06 02:56:57;;;;;;;9.30;3.53;;;;;;;;;;4902965;29;20056;-64
2022/05/06 02:59:31;;;;;;;7.47;3.63;;;;;;;;;;4894123;29;20056;-66
2022/05/06 03:02:02;;;;;;;7.10;2.88;;;;;;;;;;4879677;29;20450;-65
2022/05/06 03:04:34;;;;;;;10.55;4.20;;;;;;;;;;4860160;29;20061;-64
2022/05/06 03:07:07;;;;;;;7.13;3.88;;;;;;;;;;4890643;29;20063;-66
2022/05/06 03:09:45;;;;;;;10.38;3.95;;;;;;;;;;4891965;29;20057;-64
2022/05/06 03:12:17;;;;;;;12.60;5.20;;;;;;;;;;4880350;29;20073;-64
2022/05/06 03:14:56;;;;;;;8.50;4.22;;;;;;;;;;4876036;29;20170;-64
2022/05/06 03:17:37;;;;;;;10.43;4.55;;;;;;;;;;4910159;29;20536;-65
2022/05/06 03:20:08;;;;;;;10.00;4.60;;;;;;;;;;4945819;29;20051;-64
2022/05/06 03:22:46;;;;;;;8.82;4.53;;;;;;;;;;4900279;29;20048;-64
2022/05/06 03:25:17;;;;;;;10.32;4.13;;;;;;;;;;4915586;29;20056;-64
2022/05/06 03:28:07;;;;;;;10.43;5.00;;;;;;;;;;4898364;29;20067;-64
2022/05/06 03:30:47;;;;;;;10.77;4.35;;;;;;;;;;4938304;28;20054;-65
2022/05/06 03:33:33;;;;;;;11.65;3.70;;;;;;;;;;4917944;29;20044;-65
2022/05/06 03:36:18;;;;;;;9.93;3.97;;;;;;;;;;4893796;29;20048;-65
2022/05/06 03:39:03;;;;;;;;;;;;;;;;;;4894613;29;20059;-65
2022/05/06 03:41:41;;;;;;;6.80;3.45;;;;;;;;;;4879185;29;19923;-65
2022/05/06 03:44:12;;;;;;;7.28;4.05;;;;;;;;;;4914868;29;20048;-65
2022/05/06 03:46:47;;;;;;;9.68;3.85;;;;;;;;;;4890079;29;20506;-65
2022/05/06 03:49:25;;;;;;;9.30;3.10;;;;;;;;;;4893547;29;20441;-65
2022/05/06 03:51:57;;;;;;;9.38;4.00;;;;;;;;;;4875142;29;20108;-65
2022/05/06 03:54:28;;;;;;;9.63;4.18;;;;;;;;;;4887554;29;20524;-65
2022/05/06 03:56:59;;;;;;;6.75;3.90;;;;;;;;;;4893835;29;20163;-65
2022/05/06 03:59:31;;;;;;;7.70;4.43;;;;;;;;;;4862969;29;20060;-65
2022/05/06 04:02:13;;;;;;;9.38;4.10;;;;;;;;;;4893961;29;20521;-65
2022/05/06 04:04:44;;;;;;;10.65;4.05;;;;;;;;;;4885171;29;20052;-65
2022/05/06 04:07:17;;;;;;;10.43;4.45;;;;;;;;;;4874004;29;20101;-65
2022/05/06 04:09:50;;;;;;;8.25;4.10;;;;;;;;;;4891554;29;20059;-65
2022/05/06 04:12:23;;;;;;;8.50;4.18;;;;;;;;;;4916514;29;20052;-65
2022/05/06 04:15:01;;;;;;;8.38;4.32;;;;;;;;;;4916048;29;20060;-65
2022/05/06 04:17:33;;;;;;;8.60;4.53;;;;;;;;;;4878466;29;20065;-65
2022/05/06 04:25:44;;;;;;;8.00;3.72;;;;;;;;;;4916028;29;19923;-65
2022/05/06 04:28:18;;;;;;;6.97;3.42;;;;;;;;;;4897169;29;20064;-65
2022/05/06 04:30:53;;;;;;;6.55;3.33;;;;;;;;;;4915552;29;20056;-65
2022/05/06 04:33:27;;;;;;;7.68;3.85;;;;;;;;;;4878087;29;20509;-65
2022/05/06 04:35:59;;;;;;;7.78;3.83;;;;;;;;;;4912704;29;20056;-65
2022/05/06 04:38:31;;;;;;;8.35;3.65;;;;;;;;;;4928584;29;20055;-65
2022/05/06 04:41:05;;;;;;;7.13;3.50;;;;;;;;;;4896837;29;20048;-65
2022/05/06 04:43:36;;;;;;;7.55;3.38;;;;;;;;;;4915676;29;20555;-65
2022/05/06 04:46:06;;;;;;;7.72;3.30;;;;;;;;;;4915954;29;20096;-65
2022/05/06 04:48:38;;;;;;;8.38;4.32;;;;;;;;;;4915560;29;20048;-65
2022/05/06 04:51:13;;;;;;;8.98;3.60;;;;;;;;;;4896545;29;20060;-65
2022/05/06 04:53:44;;;;;;;7.47;3.80;;;;;;;;;;4897916;29;20044;-65
2022/05/06 04:56:15;;;;;;;9.60;4.35;;;;;;;;;;4915344;29;20048;-65
2022/05/06 04:58:46;;;;;;;9.55;4.15;;;;;;;;;;4896247;29;20067;-65
2022/05/06 05:01:25;;;;;;;7.03;3.95;;;;;;;;;;4896725;29;20576;-65
2022/05/06 05:03:59;;;;;;;9.88;4.35;;;;;;;;;;4896727;29;20056;-65
2022/05/06 05:06:36;;;;;;;7.95;4.18;;;;;;;;;;4877529;29;20053;-65
2022/05/06 05:09:11;;;;;;;9.82;4.10;;;;;;;;;;4877442;29;20053;-65
2022/05/06 05:11:45;;;;;;;9.50;4.18;;;;;;;;;;4834222;29;20047;-65
2022/05/06 05:14:21;;;;;;;11.75;3.92;;;;;;;;;;4877509;29;20061;-65
2022/05/06 05:16:52;;;;;;;8.80;4.22;;;;;;;;;;4876903;29;20064;-65
2022/05/06 05:19:23;;;;;;;8.35;3.83;;;;;;;;;;4892105;29;20057;-65
2022/05/06 05:21:58;;;;;;;7.70;3.60;;;;;;;;;;4881661;29;20052;-65
2022/05/06 05:24:28;;;;;;;11.73;3.63;;;;;;;;;;4877254;29;20056;-65
2022/05/06 05:27:01;;;;;;;7.82;3.40;;;;;;;;;;4862079;29;20060;-64
2022/05/06 05:29:34;;;;;;;8.60;3.90;;;;;;;;;;4859012;29;20057;-65
2022/05/06 05:32:05;;;;;;;12.10;3.97;;;;;;;;;;4858558;29;20053;-65
2022/05/06 05:34:41;;;;;;;10.02;3.65;;;;;;;;;;4888341;29;20061;-64
2022/05/06 05:37:15;;;;;;;7.10;3.00;;;;;;;;;;4879952;29;20453;-65
2022/05/06 05:39:46;;;;;;;7.40;3.72;;;;;;;;;;4877298;29;20065;-65
2022/05/06 05:42:23;;;;;;;11.23;3.38;;;;;;;;;;4895654;29;20505;-64
2022/05/06 05:50:40;;;;;;;9.02;3.67;;;;;;;;;;4933304;29;20055;-65
2022/05/06 05:53:12;;;;;;;10.00;4.03;;;;;;;;;;4858538;29;20049;-65
2022/05/06 05:55:44;;;;;;;7.57;3.53;;;;;;;;;;4858097;29;20471;-65
2022/05/06 05:58:19;;;;;;;6.20;3.10;;;;;;;;;;4876485;29;20166;-64
2022/05/06 06:00:51;;;;;;;7.28;3.40;;;;;;;;;;4839409;29;20058;-64
2022/05/06 06:03:28;;;;;;;6.68;2.95;;;;;;;;;;4858055;29;20049;-65
2022/05/06 06:06:00;;;;;;;9.85;3.40;;;;;;;;;;4876505;29;20057;-64
2022/05/06 06:08:30;;;;;;;6.82;3.17;;;;;;;;;;4876508;29;20049;-64
2022/05/06 06:11:05;;;;;;;8.07;3.13;;;;;;;;;;4872604;29;20058;-64
2022/05/06 06:13:43;;;;;;;7.35;3.17;;;;;;;;;;4839316;29;20049;-64
2022/05/06 06:16:19;;;;;;;8.25;2.88;;;;;;;;;;4839678;29;20050;-65
2022/05/06 06:18:50;;;;;;;;;;;;;;;;;;4824011;29;20061;-65
2022/05/06 06:21:24;;;;;;;7.55;3.38;;;;;;;;;;4857492;29;19924;-65
2022/05/06 06:23:55;;;;;;;8.27;3.40;;;;;;;;;;4857983;29;20065;-65
2022/05/06 06:26:26;;;;;;;8.55;3.20;;;;;;;;;;4838919;29;20454;-65
2022/05/06 06:29:01;;;;;;;7.78;3.22;;;;;;;;;;4871795;29;20064;-65
2022/05/06 06:31:32;;;;;;;5.43;2.97;;;;;;;;;;4832003;29;20061;-65
2022/05/06 06:34:04;;;;;;;13.68;3.08;;;;;;;;;;4861549;29;20057;-65
2022/05/06 06:36:38;;;;;;;7.50;3.15;;;;;;;;;;4803197;29;20061;-65
2022/05/06 06:39:09;;;;;;;6.35;2.80;;;;;;;;;;4826639;29;20106;-65
2022/05/06 06:41:43;;;;;;;13.15;2.83;;;;;;;;;;4825563;29;20050;-65
2022/05/06 06:44:14;;;;;;;9.73;3.13;;;;;;;;;;4841858;29;20544;-65
2022/05/06 06:47:11;;;;;;;7.78;3.58;;;;;;;;;;4910832;29;20164;-65
2022/05/06 06:49:55;;;;;;;8.10;3.53;;;;;;;;;;4895314;29;20204;-65
2022/05/06 06:52:37;;;;;;;8.35;3.38;;;;;;;;;;4913232;29;20051;-65
2022/05/06 06:55:09;;;;;;;8.90;3.03;;;;;;;;;;4928865;29;20061;-65
2022/05/06 06:57:40;;;;;;;5.93;3.38;;;;;;;;;;4895071;29;20192;-65
2022/05/06 07:00:11;;;;;;;8.88;3.70;;;;;;;;;;4894274;29;20060;-65
2022/05/06 07:02:45;;;;;;;13.52;3.10;;;;;;;;;;4863625;29;20056;-65
2022/05/06 07:05:16;;;;;;;5.78;2.70;;;;;;;;;;4913183;29;20064;-65
2022/05/06 07:13:45;;;;;;;6.53;2.20;;;;;;;;;;4863276;29;20524;-65
2022/05/06 07:16:16;;;;;;;7.20;3.10;;;;;;;;;;4894332;29;20512;-65
2022/05/06 07:18:47;;;;;;;7.72;3.60;;;;;;;;;;4888993;28;20118;-65
2022/05/06 07:21:17;;;;;;;6.63;3.00;;;;;;;;;;5001195;28;20049;-65
2022/05/06 07:23:48;;;;;;;14.45;3.58;;;;;;;;;;4922361;28;20043;-65
2022/05/06 07:26:19;;;;;;;9.45;3.20;;;;;;;;;;4922459;28;20070;-65
2022/05/06 07:28:50;;;;;;;9.13;3.00;;;;;;;;;;4970622;28;20059;-65
2022/05/06 07:31:20;;;;;;;5.28;2.03;;;;;;;;;;4970804;28;20424;-65
2022/05/06 07:33:51;;;;;;;5.15;2.20;;;;;;;;;;4954765;28;20059;-65
2022/05/06 07:36:23;;;;;;;7.47;2.28;;;;;;;;;;4938561;28;20051;-65
2022/05/06 07:38:54;;;;;;;5.72;2.72;;;;;;;;;;4970550;28;20049;-65
2022/05/06 07:41:24;;;;;;;6.50;2.60;;;;;;;;;;5010265;28;20049;-65
2022/05/06 07:43:54;;;;;;;5.15;2.60;;;;;;;;;;5013563;28;20054;-64
2022/05/06 07:46:27;;;;;;;7.18;2.20;;;;;;;;;;5013565;28;20046;-65
2022/05/06 07:48:58;;;;;;;4.25;1.70;;;;;;;;;;4981069;28;20422;-65
2022/05/06 07:51:28;;;;;;;5.35;2.42;;;;;;;;;;5013504;28;20149;-65
2022/05/06 07:54:00;;;;;;;7.32;2.42;;;;;;;;;;4997354;28;20042;-65
2022/05/06 07:56:31;;;;;;;5.00;2.28;;;;;;;;;;4977136;28;20061;-65
2022/05/06 07:59:02;;;;;;;8.35;1.70;;;;;;;;;;4957133;28;20408;-65
2022/05/06 08:04:33;;;;;;;7.00;2.33;;;;;;;;;;4980653;28;20058;-65
2022/05/06 08:07:06;;;;;;;4.85;2.08;;;;;;;;;;4964479;28;20049;-65
2022/05/06 08:09:38;;;;;;;5.82;2.55;;;;;;;;;;4895612;28;20066;-65
2022/05/06 08:12:09;;;;;;;6.18;2.70;;;;;;;;;;4973759;28;20047;-65
2022/05/06 08:14:42;;;;;;;4.97;2.55;;;;;;;;;;4973946;28;20065;-65
2022/05/06 08:17:13;;;;;;;8.25;2.47;;;;;;;;;;4973947;28;20526;-65
2022/05/06 08:19:43;;;;;;;6.43;2.55;;;;;;;;;;4973687;28;20112;-65
2022/05/06 08:22:14;;;;;;;4.72;2.30;;;;;;;;;;4973689;28;20062;-65
2022/05/06 08:24:44;;;;;;;4.05;2.17;;;;;;;;;;4973792;28;20062;-65
2022/05/06 08:27:43;;;;;;;6.68;2.38;;;;;;;;;;4973425;28;20069;-65
2022/05/06 08:30:14;;;;;;;4.22;2.25;;;;;;;;;;4973664;28;20047;-65
2022/05/06 08:32:44;;;;;;;5.72;2.53;;;;;;;;;;4973290;28;20054;-65
2022/05/06 08:35:15;;;;;;;3.58;2.00;;;;;;;;;;4989613;28;20520;-65
2022/05/06 08:37:47;;;;;;;6.75;2.35;;;;;;;;;;4975992;28;20050;-65
2022/05/06 08:40:23;;;;;;;5.55;2.10;;;;;;;;;;5011209;28;20053;-65
2022/05/06 08:42:54;;;;;;;4.72;2.30;;;;;;;;;;5012382;28;20050;-64
2022/05/06 08:51:06;;;;;;;8.85;2.88;;;;;;;;;;5012091;28;20065;-65
2022/05/06 08:53:38;;;;;;;8.48;3.35;;;;;;;;;;5012149;28;20058;-65
2022/05/06 08:56:09;;;;;;;8.55;3.33;;;;;;;;;;5012210;28;20061;-64
2022/05/06 08:58:41;;;;;;;6.13;3.08;;;;;;;;;;4975975;28;20057;-64
2022/05/06 09:01:13;;;;;;;6.72;3.10;;;;;;;;;;4940857;28;20565;-64
2022/05/06 09:03:48;;;;;;;6.45;2.88;;;;;;;;;;4956782;28;20526;-65
2022/05/06 09:06:22;;;;;;;9.02;3.53;;;;;;;;;;4954740;28;20051;-64
2022/05/06 09:08:55;;;;;;;8.02;2.90;;;;;;;;;;4953922;29;20068;-64
2022/05/06 09:16:39;;;;;;;7.35;3.25;;;;;;;;;;4992222;28;20038;-64
2022/05/06 09:17:22;;;;;;;7.32;2.75;;;;;;;;;;4992521;28;20058;-64
2022/05/06 09:19:53;;;;;;;7.05;2.65;;;;;;;;;;4960015;28;20065;-64
2022/05/06 09:22:28;;;;;;;7.18;2.72;;;;;;;;;;4991913;28;20058;-64
2022/05/06 09:24:59;;;;;;;10.27;3.42;;;;;;;;;;4946135;28;20506;-64
2022/05/06 09:27:29;;;;;;;6.68;2.97;;;;;;;;;;5012009;28;20061;-65
2022/05/06 09:30:08;;;;;;;7.35;3.42;;;;;;;;;;4979132;28;20061;-65
2022/05/06 09:32:39;;;;;;;8.40;4.20;;;;;;;;;;5011679;28;20056;-64
2022/05/06 09:35:13;;;;;;;6.07;2.85;;;;;;;;;;5013554;28;20068;-64
2022/05/06 09:37:49;;;;;;;6.90;3.08;;;;;;;;;;5015082;28;20405;-64
2022/05/06 09:40:21;;;;;;;5.80;2.50;;;;;;;;;;5015273;28;20386;-65
2022/05/06 09:43:00;;;;;;;5.90;2.30;;;;;;;;;;4998367;28;20440;-64
2022/05/06 09:45:38;;;;;;;7.75;2.75;;;;;;;;;;5015172;28;20061;-64
2022/05/06 09:48:12;;;;;;;5.38;2.80;;;;;;;;;;5031043;28;20053;-64
2022/05/06 09:50:44;;;;;;;;;;;;;;;;;;5011576;28;20057;-63
2022/05/06 09:53:21;;;;;;;8.43;3.47;;;;;;;;;;5011134;28;19922;-63
2022/05/06 09:55:52;;;;;;;12.07;4.30;;;;;;;;;;5011001;28;20418;-63
2022/05/06 09:58:28;;;;;;;10.75;3.97;;;;;;;;;;5010987;28;20053;-64
2022/05/06 10:00:59;;;;;;;13.57;4.28;;;;;;;;;;4993556;28;20062;-64
2022/05/06 10:03:30;;;;;;;11.18;3.88;;;;;;;;;;4990742;28;20529;-64
2022/05/06 10:06:02;;;;;;;10.20;3.47;;;;;;;;;;4971928;28;20062;-63
2022/05/06 10:08:34;;;;;;;6.75;3.05;;;;;;;;;;4939748;28;20062;-64
2022/05/06 10:11:12;;;;;;;7.80;3.13;;;;;;;;;;4939728;28;20058;-64
2022/05/06 10:13:45;;;;;;;12.43;3.28;;;;;;;;;;4955918;28;20415;-64
2022/05/06 10:16:19;;;;;;;12.05;4.32;;;;;;;;;;4973613;28;20054;-64
2022/05/06 10:18:49;;;;;;;11.38;4.70;;;;;;;;;;4990947;28;20058;-64
2022/05/06 10:21:49;;;;;;;15.20;5.05;;;;;;;;;;4958693;28;20062;-64
2022/05/06 10:24:20;;;;;;;12.60;4.20;;;;;;;;;;4974840;28;20410;-64
2022/05/06 10:26:52;;;;;;;21.33;9.25;;;;;;;;;;4958388;28;20050;-64
2022/05/06 10:32:57;;;;;;;13.70;5.35;;;;;;;;;;5030616;28;20053;-64
2022/05/06 10:35:39;;;;;;;17.38;4.90;;;;;;;;;;5030063;28;20571;-63
2022/05/06 10:38:23;;;;;;;19.13;5.20;;;;;;;;;;5030254;28;20077;-64
2022/05/06 10:41:02;;;;;;;18.85;4.55;;;;;;;;;;5030234;28;20408;-64
2022/05/06 10:43:43;;;;;;;15.82;6.30;;;;;;;;;;5013709;28;20056;-64
2022/05/06 10:46:37;;;;;;;15.40;6.15;;;;;;;;;;5052264;28;20076;-64
2022/05/06 10:49:35;;;;;;;17.70;6.75;;;;;;;;;;5052127;28;20037;-64
2022/05/06 10:52:14;;;;;;;;;;;;;;;;;;4997081;28;20052;-64
2022/05/06 10:55:03;;;;;;;18.20;6.00;;;;;;;;;;5029944;28;19947;-64
2022/05/06 10:57:55;;;;;;;18.65;6.50;;;;;;;;;;5029846;28;20061;-63
2022/05/06 11:00:28;;;;;;;17.52;6.93;;;;;;;;;;5027390;28;20056;-64
2022/05/06 11:02:59;;;;;;;20.70;7.15;;;;;;;;;;5049400;28;20053;-63
2022/05/06 11:05:31;;;;;;;22.50;7.00;;;;;;;;;;5049409;28;20061;-64
2022/05/06 11:08:03;;;;;;;21.17;6.80;;;;;;;;;;5016164;28;20053;-64
2022/05/06 11:10:35;;;;;;;22.80;7.05;;;;;;;;;;4993033;28;20612;-64
2022/05/06 11:13:26;;;;;;;20.73;6.35;;;;;;;;;;5009904;28;20053;-64
2022/05/06 11:16:07;;;;;;;20.58;8.50;;;;;;;;;;4976415;28;20089;-64
2022/05/06 11:18:45;;;;;;;20.55;7.53;;;;;;;;;;4994325;28;20050;-63
2022/05/06 11:21:23;;;;;;;18.80;7.47;;;;;;;;;;4951180;28;20106;-64
2022/05/06 11:23:54;;;;;;;24.45;7.03;;;;;;;;;;4951491;28;20397;-63
2022/05/06 11:26:30;;;;;;;24.30;8.38;;;;;;;;;;4951225;28;20082;-64
2022/05/06 11:29:03;;;;;;;23.27;7.68;;;;;;;;;;4955005;28;20063;-63
2022/05/06 11:31:34;;;;;;;31.40;8.40;;;;;;;;;;4950870;28;20051;-63
2022/05/06 11:34:06;;;;;;;19.40;8.07;;;;;;;;;;4951124;28;20091;-63
2022/05/06 11:36:37;;;;;;;25.45;8.20;;;;;;;;;;4935742;28;20058;-64
2022/05/06 11:39:12;;;;;;;21.02;8.30;;;;;;;;;;4951233;28;20534;-64
2022/05/06 11:41:42;;;;;;;31.00;8.48;;;;;;;;;;4889524;28;20055;-63
2022/05/06 11:47:26;;;;;;;30.88;9.13;;;;;;;;;;4934909;29;20051;-64
2022/05/06 11:50:07;;;;;;;28.13;8.95;;;;;;;;;;4903616;28;20055;-63
2022/05/06 11:52:42;;;;;;;32.03;8.82;;;;;;;;;;4951102;29;20416;-63
2022/05/06 11:55:15;;;;;;;31.90;10.18;;;;;;;;;;4935432;29;20051;-63
2022/05/06 11:57:47;;;;;;;32.40;9.48;;;;;;;;;;4952041;28;20415;-63
2022/05/06 12:00:18;;;;;;;35.03;10.38;;;;;;;;;;4970251;28;20058;-63
2022/05/06 12:02:50;;;;;;;35.25;10.00;;;;;;;;;;4989674;28;20051;-63
2022/05/06 12:05:21;;;;;;;28.77;10.77;;;;;;;;;;5012326;28;20555;-63
2022/05/06 12:07:52;;;;;;;27.63;8.93;;;;;;;;;;4989358;28;20069;-63
2022/05/06 12:10:28;;;;;;;29.88;9.65;;;;;;;;;;4950900;28;20507;-63
2022/05/06 12:13:01;;;;;;;26.83;9.27;;;;;;;;;;4931747;29;20056;-63
2022/05/06 12:15:42;;;;;;;29.35;9.95;;;;;;;;;;4932057;29;20064;-63
2022/05/06 12:18:24;;;;;;;31.92;9.85;;;;;;;;;;4931820;29;20530;-63
2022/05/06 12:20:55;;;;;;;30.42;10.70;;;;;;;;;;4901266;29;20055;-63
2022/05/06 12:23:30;;;;;;;27.05;9.10;;;;;;;;;;4931861;29;20051;-63
2022/05/06 12:26:01;;;;;;;29.13;8.80;;;;;;;;;;4943758;28;20437;-63
2022/05/06 12:28:31;;;;;;;31.65;10.13;;;;;;;;;;4954551;29;20062;-63
2022/05/06 12:31:02;;;;;;;29.88;9.15;;;;;;;;;;4954622;29;20401;-63
2022/05/06 12:33:37;;;;;;;30.60;9.88;;;;;;;;;;4970409;28;20057;-63
2022/05/06 12:36:08;;;;;;;23.65;8.50;;;;;;;;;;4954155;28;20074;-63
2022/05/06 12:38:50;;;;;;;25.30;9.05;;;;;;;;;;4969906;28;20550;-63
2022/05/06 12:41:35;;;;;;;10.65;5.35;;;;;;;;;;4971277;28;20062;-63
2022/05/06 12:44:18;;;;;;;15.35;6.00;;;;;;;;;;4989457;28;20057;-63
2022/05/06 12:46:50;;;;;;;12.63;5.70;;;;;;;;;;4941646;28;20059;-63
2022/05/06 12:52:10;;;;;;;10.23;4.97;;;;;;;;;;5052395;28;20405;-63
2022/05/06 12:54:40;;;;;;;14.40;6.68;;;;;;;;;;5052100;28;20071;-63
2022/05/06 12:57:11;;;;;;;15.23;5.60;;;;;;;;;;5031592;28;20058;-62
2022/05/06 12:59:41;;;;;;;14.63;5.75;;;;;;;;;;5031829;28;20065;-63
2022/05/06 13:02:12;;;;;;;14.20;6.45;;;;;;;;;;4983111;28;20057;-63
2022/05/06 13:04:43;;;;;;;19.75;7.57;;;;;;;;;;5032182;28;20038;-63
2022/05/06 13:07:16;;;;;;;20.45;8.38;;;;;;;;;;4985097;28;20057;-63
2022/05/06 13:09:47;;;;;;;19.55;7.53;;;;;;;;;;5015951;28;20598;-63
2022/05/06 13:12:18;;;;;;;18.92;7.57;;;;;;;;;;5011942;28;20057;-63
2022/05/06 13:14:48;;;;;;;17.60;7.95;;;;;;;;;;4960388;28;20046;-62
2022/05/06 13:17:19;;;;;;;18.27;8.93;;;;;;;;;;4953245;29;20574;-62
2022/05/06 13:19:51;;;;;;;16.35;7.55;;;;;;;;;;4953534;29;20063;-63
2022/05/06 13:22:25;;;;;;;16.15;6.95;;;;;;;;;;4953535;29;20051;-62
2022/05/06 13:24:55;;;;;;;15.10;7.07;;;;;;;;;;4953680;29;20055;-62
2022/05/06 13:27:26;;;;;;;14.63;6.72;;;;;;;;;;4953452;29;20059;-62
2022/05/06 13:29:56;;;;;;;12.85;6.28;;;;;;;;;;4952521;28;20066;-63
2022/05/06 13:32:28;;;;;;;11.75;6.03;;;;;;;;;;4953187;29;20055;-64
2022/05/06 13:34:58;;;;;;;16.42;6.25;;;;;;;;;;4953522;29;20439;-62
2022/05/06 13:37:29;;;;;;;16.90;6.75;;;;;;;;;;4952490;28;20062;-63
2022/05/06 13:39:59;;;;;;;17.77;7.90;;;;;;;;;;4952838;29;20058;-62
2022/05/06 13:42:30;;;;;;;20.13;8.13;;;;;;;;;;4921393;29;20055;-62
2022/05/06 13:45:01;;;;;;;24.85;8.48;;;;;;;;;;4937177;29;20482;-63
2022/05/06 13:47:31;;;;;;;24.27;8.70;;;;;;;;;;4952969;29;20087;-63
2022/05/06 13:50:02;;;;;;;28.13;10.73;;;;;;;;;;4973966;28;20062;-62
2022/05/06 13:52:34;;;;;;;25.98;10.80;;;;;;;;;;5013274;28;20054;-62
2022/05/06 13:55:06;;;;;;;34.00;12.20;;;;;;;;;;5054331;28;20071;-62
2022/05/06 14:00:34;;;;;;;52.75;19.40;;;;;;;;;;5089077;28;20063;-63
2022/05/06 14:03:05;;;;;;;43.28;15.75;;;;;;;;;;5050656;28;20041;-62
2022/05/06 14:05:38;;;;;;;27.05;10.65;;;;;;;;;;5050763;28;20049;-63
2022/05/06 14:08:09;;;;;;;31.08;15.15;;;;;;;;;;5018293;28;20045;-62
2022/05/06 14:10:39;;;;;;;28.35;11.68;;;;;;;;;;5050819;28;20056;-62
2022/05/06 14:13:10;;;;;;;31.73;14.02;;;;;;;;;;5050676;28;20400;-62
2022/05/06 14:15:41;;;;;;;15.90;6.97;;;;;;;;;;5050558;28;20064;-63
2022/05/06 14:18:12;;;;;;;19.45;8.23;;;;;;;;;;5017499;28;20049;-62
2022/05/06 14:20:43;;;;;;;19.88;7.47;;;;;;;;;;5001283;28;20447;-62
2022/05/06 14:23:14;;;;;;;17.75;7.85;;;;;;;;;;5017521;28;20060;-63
2022/05/06 14:25:45;;;;;;;24.75;9.98;;;;;;;;;;5053369;28;20044;-62
2022/05/06 14:28:15;;;;;;;21.10;8.15;;;;;;;;;;5070366;28;20052;-63
2022/05/06 14:30:46;;;;;;;14.00;6.80;;;;;;;;;;5019834;28;20044;-62
2022/05/06 14:33:17;;;;;;;14.95;7.00;;;;;;;;;;5053522;28;20044;-62
2022/05/06 14:35:48;;;;;;;15.48;6.85;;;;;;;;;;5036867;28;20057;-62
2022/05/06 14:38:21;;;;;;;16.85;6.85;;;;;;;;;;5029600;28;20049;-62
2022/05/06 14:40:52;;;;;;;14.80;7.55;;;;;;;;;;5027807;28;20060;-63
2022/05/06 14:43:24;;;;;;;16.98;8.30;;;;;;;;;;5070301;28;20068;-62
2022/05/06 14:45:54;;;;;;;15.80;7.00;;;;;;;;;;5037356;28;20045;-62
2022/05/06 14:48:25;;;;;;;15.90;7.40;;;;;;;;;;5032992;28;20045;-63
2022/05/06 14:50:57;;;;;;;16.95;8.38;;;;;;;;;;5049578;28;20078;-63
2022/05/06 14:53:27;;;;;;;18.08;7.53;;;;;;;;;;5050056;28;20057;-62
2022/05/06 14:55:58;;;;;;;15.32;7.03;;;;;;;;;;5013444;28;20052;-62
2022/05/06 14:58:29;;;;;;;18.10;7.22;;;;;;;;;;5016926;28;20063;-63
2022/05/06 15:01:00;;;;;;;15.07;7.43;;;;;;;;;;5049757;28;20053;-63
2022/05/06 15:03:32;;;;;;;17.85;8.25;;;;;;;;;;5049854;28;20056;-63
2022/05/06 15:06:03;;;;;;;16.73;8.98;;;;;;;;;;5033685;28;20057;-63
2022/05/06 15:08:35;;;;;;;15.25;7.55;;;;;;;;;;5017726;28;20057;-63
2022/05/06 15:11:06;;;;;;;13.70;6.32;;;;;;;;;;5049833;28;20049;-62
2022/05/06 15:13:39;;;;;;;11.30;5.22;;;;;;;;;;5049370;28;20048;-63
2022/05/06 15:16:10;;;;;;;12.27;6.43;;;;;;;;;;5028585;28;20053;-63
2022/05/06 15:21:30;;;;;;;14.13;6.88;;;;;;;;;;4980757;28;20056;-63
2022/05/06 15:24:01;;;;;;;14.32;7.07;;;;;;;;;;5029421;28;20045;-63
2022/05/06 15:26:31;;;;;;;12.48;6.90;;;;;;;;;;5046019;28;20056;-63
2022/05/06 15:29:02;;;;;;;18.30;6.22;;;;;;;;;;4996750;28;20053;-63
2022/05/06 15:31:33;;;;;;;15.07;6.50;;;;;;;;;;5029470;28;20436;-63
2022/05/06 15:34:04;;;;;;;21.40;8.90;;;;;;;;;;5029606;28;20045;-63
2022/05/06 15:36:35;;;;;;;15.98;8.35;;;;;;;;;;5029174;28;20053;-63
2022/05/06 15:39:06;;;;;;;17.10;7.40;;;;;;;;;;5029468;28;20405;-63
2022/05/06 15:41:40;;;;;;;17.98;8.77;;;;;;;;;;5029647;28;20057;-63
2022/05/06 15:44:12;;;;;;;18.27;8.68;;;;;;;;;;5029506;28;20058;-63
2022/05/06 15:46:43;;;;;;;15.45;7.38;;;;;;;;;;4980576;28;20049;-62
2022/05/06 15:49:13;;;;;;;11.85;5.95;;;;;;;;;;5029354;28;20076;-63
2022/05/06 15:51:45;;;;;;;12.95;5.95;;;;;;;;;;5029311;28;20056;-63
2022/05/06 15:54:16;;;;;;;14.80;6.95;;;;;;;;;;5029401;28;20045;-63
2022/05/06 15:56:47;;;;;;;9.73;4.72;;;;;;;;;;5057014;28;20488;-63
2022/05/06 15:59:17;;;;;;;15.93;6.90;;;;;;;;;;5069153;28;20061;-63
2022/05/06 16:01:48;;;;;;;12.38;6.03;;;;;;;;;;5054118;28;20152;-63
2022/05/06 16:04:19;;;;;;;12.60;5.97;;;;;;;;;;5073481;28;20052;-64
2022/05/06 16:06:50;;;;;;;11.60;5.40;;;;;;;;;;5072978;28;20068;-63